sensor_id;sensor_type;location;lat;lon;timestamp;temperature;humidity
10133;DHT22;5106;50.926;7.080;2023-11-19T00:00:17;9.50;96.50
10133;DHT22;5106;50.926;7.080;2023-11-19T00:02:42;9.50;96.50
10133;DHT22;5106;50.926;7.080;2023-11-19T00:05:09;9.50;96.50
10133;DHT22;5106;50.926;7.080;2023-11-19T00:07:35;9.50;96.50
10133;DHT22;5106;50.926;7.080;2023-11-19T00:10:02;9.50;96.50
10133;DHT22;5106;50.926;7.080;2023-11-19T00:12:32;9.50;96.50
10133;DHT22;5106;50.926;7.080;2023-11-19T00:14:57;9.60;96.50
10133;DHT22;5106;50.926;7.080;2023-11-19T00:17:23;9.60;96.50
10133;DHT22;5106;50.926;7.080;2023-11-19T00:19:49;9.60;96.50
10133;DHT22;5106;50.926;7.080;2023-11-19T00:22:16;9.60;96.50
10133;DHT22;5106;50.926;7.080;2023-11-19T00:24:42;9.60;96.50
10133;DHT22;5106;50.926;7.080;2023-11-19T00:27:08;9.60;96.50
10133;DHT22;5106;50.926;7.080;2023-11-19T00:29:33;9.60;96.50
10133;DHT22;5106;50.926;7.080;2023-11-19T00:31:59;9.60;96.50
10133;DHT22;5106;50.926;7.080;2023-11-19T00:34:24;9.70;96.50
10133;DHT22;5106;50.926;7.080;2023-11-19T00:36:50;9.70;96.50
10133;DHT22;5106;50.926;7.080;2023-11-19T00:39:16;9.70;96.50
10133;DHT22;5106;50.926;7.080;2023-11-19T00:41:41;9.70;96.50
10133;DHT22;5106;50.926;7.080;2023-11-19T00:44:07;9.70;96.50
10133;DHT22;5106;50.926;7.080;2023-11-19T00:46:32;9.80;96.50
10133;DHT22;5106;50.926;7.080;2023-11-19T00:48:58;9.80;96.50
10133;DHT22;5106;50.926;7.080;2023-11-19T00:51:25;9.90;96.50
10133;DHT22;5106;50.926;7.080;2023-11-19T00:53:52;10.00;96.50
10133;DHT22;5106;50.926;7.080;2023-11-19T00:56:18;10.00;96.50
10133;DHT22;5106;50.926;7.080;2023-11-19T00:58:50;10.00;96.50
10133;DHT22;5106;50.926;7.080;2023-11-19T01:01:15;10.00;96.50
10133;DHT22;5106;50.926;7.080;2023-11-19T01:03:41;10.00;96.50
10133;DHT22;5106;50.926;7.080;2023-11-19T01:06:07;10.00;96.50
10133;DHT22;5106;50.926;7.080;2023-11-19T01:08:33;10.00;96.50
10133;DHT22;5106;50.926;7.080;2023-11-19T01:11:01;10.00;96.50
10133;DHT22;5106;50.926;7.080;2023-11-19T01:13:28;10.00;96.50
10133;DHT22;5106;50.926;7.080;2023-11-19T01:15:53;10.10;96.50
10133;DHT22;5106;50.926;7.080;2023-11-19T01:18:21;10.10;96.50
10133;DHT22;5106;50.926;7.080;2023-11-19T01:20:47;10.10;96.50
10133;DHT22;5106;50.926;7.080;2023-11-19T01:23:13;10.10;96.50
10133;DHT22;5106;50.926;7.080;2023-11-19T01:25:38;10.20;96.50
10133;DHT22;5106;50.926;7.080;2023-11-19T01:28:04;10.20;96.50
10133;DHT22;5106;50.926;7.080;2023-11-19T01:30:30;10.20;96.50
10133;DHT22;5106;50.926;7.080;2023-11-19T01:32:56;10.30;96.50
10133;DHT22;5106;50.926;7.080;2023-11-19T01:35:21;10.30;96.50
10133;DHT22;5106;50.926;7.080;2023-11-19T01:37:48;10.30;96.50
10133;DHT22;5106;50.926;7.080;2023-11-19T01:40:14;10.30;96.50
10133;DHT22;5106;50.926;7.080;2023-11-19T01:42:40;10.40;96.50
10133;DHT22;5106;50.926;7.080;2023-11-19T01:45:07;10.40;96.50
10133;DHT22;5106;50.926;7.080;2023-11-19T01:47:33;10.40;96.50
10133;DHT22;5106;50.926;7.080;2023-11-19T01:49:59;10.40;96.50
10133;DHT22;5106;50.926;7.080;2023-11-19T01:52:25;10.40;96.50
10133;DHT22;5106;50.926;7.080;2023-11-19T01:54:53;10.40;96.50
10133;DHT22;5106;50.926;7.080;2023-11-19T01:57:21;10.40;96.50
10133;DHT22;5106;50.926;7.080;2023-11-19T01:59:52;10.50;96.50
10133;DHT22;5106;50.926;7.080;2023-11-19T02:02:19;10.50;96.50
10133;DHT22;5106;50.926;7.080;2023-11-19T02:04:51;10.50;96.50
10133;DHT22;5106;50.926;7.080;2023-11-19T02:07:17;10.50;96.50
10133;DHT22;5106;50.926;7.080;2023-11-19T02:09:43;10.50;96.50
10133;DHT22;5106;50.926;7.080;2023-11-19T02:12:10;10.60;96.50
10133;DHT22;5106;50.926;7.080;2023-11-19T02:14:37;10.60;96.50
10133;DHT22;5106;50.926;7.080;2023-11-19T02:17:03;10.60;96.50
10133;DHT22;5106;50.926;7.080;2023-11-19T02:19:29;10.60;96.50
10133;DHT22;5106;50.926;7.080;2023-11-19T02:21:55;10.60;96.50
10133;DHT22;5106;50.926;7.080;2023-11-19T02:24:22;10.60;96.50
10133;DHT22;5106;50.926;7.080;2023-11-19T02:27:13;10.60;96.50
10133;DHT22;5106;50.926;7.080;2023-11-19T02:29:41;10.60;96.50
10133;DHT22;5106;50.926;7.080;2023-11-19T02:32:07;10.60;96.50
10133;DHT22;5106;50.926;7.080;2023-11-19T02:34:34;10.60;96.50
10133;DHT22;5106;50.926;7.080;2023-11-19T02:37:05;10.60;96.50
10133;DHT22;5106;50.926;7.080;2023-11-19T02:39:31;10.60;96.50
10133;DHT22;5106;50.926;7.080;2023-11-19T02:41:56;10.60;96.50
10133;DHT22;5106;50.926;7.080;2023-11-19T02:44:22;10.70;96.50
10133;DHT22;5106;50.926;7.080;2023-11-19T02:46:48;10.70;96.50
10133;DHT22;5106;50.926;7.080;2023-11-19T02:49:14;10.70;96.50
10133;DHT22;5106;50.926;7.080;2023-11-19T02:51:40;10.70;96.50
10133;DHT22;5106;50.926;7.080;2023-11-19T02:54:06;10.80;96.50
10133;DHT22;5106;50.926;7.080;2023-11-19T02:56:32;10.80;96.50
10133;DHT22;5106;50.926;7.080;2023-11-19T02:59:02;10.80;96.50
10133;DHT22;5106;50.926;7.080;2023-11-19T03:01:40;10.80;96.50
10133;DHT22;5106;50.926;7.080;2023-11-19T03:04:09;10.80;96.50
10133;DHT22;5106;50.926;7.080;2023-11-19T03:06:37;10.80;96.50
10133;DHT22;5106;50.926;7.080;2023-11-19T03:09:03;10.80;96.50
10133;DHT22;5106;50.926;7.080;2023-11-19T03:11:33;10.80;96.50
10133;DHT22;5106;50.926;7.080;2023-11-19T03:13:59;10.80;96.50
10133;DHT22;5106;50.926;7.080;2023-11-19T03:16:24;10.80;96.50
10133;DHT22;5106;50.926;7.080;2023-11-19T03:18:50;10.80;96.50
10133;DHT22;5106;50.926;7.080;2023-11-19T03:21:15;10.80;96.50
10133;DHT22;5106;50.926;7.080;2023-11-19T03:23:41;10.70;96.50
10133;DHT22;5106;50.926;7.080;2023-11-19T03:26:06;10.80;96.50
10133;DHT22;5106;50.926;7.080;2023-11-19T03:28:33;10.80;96.50
10133;DHT22;5106;50.926;7.080;2023-11-19T03:30:58;10.80;96.50
10133;DHT22;5106;50.926;7.080;2023-11-19T03:33:24;10.90;96.50
10133;DHT22;5106;50.926;7.080;2023-11-19T03:35:51;10.90;96.50
10133;DHT22;5106;50.926;7.080;2023-11-19T03:38:17;10.90;96.50
10133;DHT22;5106;50.926;7.080;2023-11-19T03:40:43;11.00;96.50
10133;DHT22;5106;50.926;7.080;2023-11-19T03:43:08;11.00;96.50
10133;DHT22;5106;50.926;7.080;2023-11-19T03:45:34;11.00;96.50
10133;DHT22;5106;50.926;7.080;2023-11-19T03:48:01;11.00;96.50
10133;DHT22;5106;50.926;7.080;2023-11-19T03:50:32;11.00;96.50
10133;DHT22;5106;50.926;7.080;2023-11-19T03:52:58;11.10;96.50
10133;DHT22;5106;50.926;7.080;2023-11-19T03:55:23;11.10;96.50
10133;DHT22;5106;50.926;7.080;2023-11-19T03:57:49;11.10;96.50
10133;DHT22;5106;50.926;7.080;2023-11-19T04:00:15;11.20;96.50
10133;DHT22;5106;50.926;7.080;2023-11-19T04:02:41;11.20;96.50
10133;DHT22;5106;50.926;7.080;2023-11-19T04:05:07;11.20;96.50
10133;DHT22;5106;50.926;7.080;2023-11-19T04:07:33;11.20;96.50
10133;DHT22;5106;50.926;7.080;2023-11-19T04:09:59;11.20;96.50
10133;DHT22;5106;50.926;7.080;2023-11-19T04:12:24;11.20;96.50
10133;DHT22;5106;50.926;7.080;2023-11-19T04:14:50;11.40;96.50
10133;DHT22;5106;50.926;7.080;2023-11-19T04:17:16;11.50;96.50
10133;DHT22;5106;50.926;7.080;2023-11-19T04:19:41;11.60;96.50
10133;DHT22;5106;50.926;7.080;2023-11-19T04:22:07;11.70;96.50
10133;DHT22;5106;50.926;7.080;2023-11-19T04:24:34;11.80;96.50
10133;DHT22;5106;50.926;7.080;2023-11-19T04:27:00;11.80;96.50
10133;DHT22;5106;50.926;7.080;2023-11-19T04:29:25;11.80;96.50
10133;DHT22;5106;50.926;7.080;2023-11-19T04:31:51;11.80;96.50
10133;DHT22;5106;50.926;7.080;2023-11-19T04:34:16;11.80;96.50
10133;DHT22;5106;50.926;7.080;2023-11-19T04:36:42;11.90;96.50
10133;DHT22;5106;50.926;7.080;2023-11-19T04:39:09;11.90;96.50
10133;DHT22;5106;50.926;7.080;2023-11-19T04:41:51;11.90;96.50
10133;DHT22;5106;50.926;7.080;2023-11-19T04:44:19;11.90;96.50
10133;DHT22;5106;50.926;7.080;2023-11-19T04:46:45;11.90;96.50
10133;DHT22;5106;50.926;7.080;2023-11-19T04:49:12;11.90;96.50
10133;DHT22;5106;50.926;7.080;2023-11-19T04:51:41;12.00;96.50
10133;DHT22;5106;50.926;7.080;2023-11-19T04:54:11;12.10;96.50
10133;DHT22;5106;50.926;7.080;2023-11-19T04:56:37;12.20;96.50
10133;DHT22;5106;50.926;7.080;2023-11-19T04:59:03;12.20;96.50
10133;DHT22;5106;50.926;7.080;2023-11-19T05:01:29;12.20;96.50
10133;DHT22;5106;50.926;7.080;2023-11-19T05:03:55;12.30;96.50
10133;DHT22;5106;50.926;7.080;2023-11-19T05:06:22;12.30;96.50
10133;DHT22;5106;50.926;7.080;2023-11-19T05:08:48;12.30;96.50
10133;DHT22;5106;50.926;7.080;2023-11-19T05:11:13;12.30;96.50
10133;DHT22;5106;50.926;7.080;2023-11-19T05:13:43;12.30;96.50
10133;DHT22;5106;50.926;7.080;2023-11-19T05:16:11;12.30;96.50
10133;DHT22;5106;50.926;7.080;2023-11-19T05:18:39;12.30;96.50
10133;DHT22;5106;50.926;7.080;2023-11-19T05:21:05;12.20;96.50
10133;DHT22;5106;50.926;7.080;2023-11-19T05:23:32;12.20;96.50
10133;DHT22;5106;50.926;7.080;2023-11-19T05:25:59;12.20;96.50
10133;DHT22;5106;50.926;7.080;2023-11-19T05:28:25;12.10;96.50
10133;DHT22;5106;50.926;7.080;2023-11-19T05:30:51;12.10;96.50
10133;DHT22;5106;50.926;7.080;2023-11-19T05:33:17;12.10;96.50
10133;DHT22;5106;50.926;7.080;2023-11-19T05:35:42;12.00;96.50
10133;DHT22;5106;50.926;7.080;2023-11-19T05:38:08;11.90;96.50
10133;DHT22;5106;50.926;7.080;2023-11-19T05:40:35;11.90;96.50
10133;DHT22;5106;50.926;7.080;2023-11-19T05:43:01;11.90;96.50
10133;DHT22;5106;50.926;7.080;2023-11-19T05:45:26;11.90;96.50
10133;DHT22;5106;50.926;7.080;2023-11-19T05:47:52;12.00;96.50
10133;DHT22;5106;50.926;7.080;2023-11-19T05:50:18;11.90;96.50
10133;DHT22;5106;50.926;7.080;2023-11-19T05:52:43;11.90;96.50
10133;DHT22;5106;50.926;7.080;2023-11-19T05:55:09;11.80;96.50
10133;DHT22;5106;50.926;7.080;2023-11-19T05:57:38;11.80;96.50
10133;DHT22;5106;50.926;7.080;2023-11-19T06:00:06;11.80;96.50
10133;DHT22;5106;50.926;7.080;2023-11-19T06:02:33;11.80;96.50
10133;DHT22;5106;50.926;7.080;2023-11-19T06:04:58;11.80;96.50
10133;DHT22;5106;50.926;7.080;2023-11-19T06:07:24;11.90;96.50
10133;DHT22;5106;50.926;7.080;2023-11-19T06:09:50;12.00;96.50
10133;DHT22;5106;50.926;7.080;2023-11-19T06:12:15;12.00;96.50
10133;DHT22;5106;50.926;7.080;2023-11-19T06:14:41;11.90;96.50
10133;DHT22;5106;50.926;7.080;2023-11-19T06:17:07;12.00;96.50
10133;DHT22;5106;50.926;7.080;2023-11-19T06:19:34;12.10;96.50
10133;DHT22;5106;50.926;7.080;2023-11-19T06:21:59;12.10;96.50
10133;DHT22;5106;50.926;7.080;2023-11-19T06:24:25;12.10;96.50
10133;DHT22;5106;50.926;7.080;2023-11-19T06:26:50;12.00;96.50
10133;DHT22;5106;50.926;7.080;2023-11-19T06:29:16;11.90;96.50
10133;DHT22;5106;50.926;7.080;2023-11-19T06:31:45;12.10;96.50
10133;DHT22;5106;50.926;7.080;2023-11-19T06:34:10;12.10;96.50
10133;DHT22;5106;50.926;7.080;2023-11-19T06:36:36;12.20;96.50
10133;DHT22;5106;50.926;7.080;2023-11-19T06:39:03;12.20;96.50
10133;DHT22;5106;50.926;7.080;2023-11-19T06:41:29;12.20;96.50
10133;DHT22;5106;50.926;7.080;2023-11-19T06:43:55;12.30;96.50
10133;DHT22;5106;50.926;7.080;2023-11-19T06:46:20;12.30;96.50
10133;DHT22;5106;50.926;7.080;2023-11-19T06:48:46;12.30;96.50
10133;DHT22;5106;50.926;7.080;2023-11-19T06:51:12;12.30;96.50
10133;DHT22;5106;50.926;7.080;2023-11-19T06:53:38;12.30;96.50
10133;DHT22;5106;50.926;7.080;2023-11-19T06:56:05;12.40;96.50
10133;DHT22;5106;50.926;7.080;2023-11-19T06:58:35;12.40;96.50
10133;DHT22;5106;50.926;7.080;2023-11-19T07:01:01;12.40;96.50
10133;DHT22;5106;50.926;7.080;2023-11-19T07:03:26;12.30;96.50
10133;DHT22;5106;50.926;7.080;2023-11-19T07:05:52;12.30;96.50
10133;DHT22;5106;50.926;7.080;2023-11-19T07:08:17;12.20;96.50
10133;DHT22;5106;50.926;7.080;2023-11-19T07:10:43;12.20;96.50
10133;DHT22;5106;50.926;7.080;2023-11-19T07:13:08;12.10;96.50
10133;DHT22;5106;50.926;7.080;2023-11-19T07:15:35;12.00;96.50
10133;DHT22;5106;50.926;7.080;2023-11-19T07:18:00;12.00;96.50
10133;DHT22;5106;50.926;7.080;2023-11-19T07:20:26;11.90;96.50
10133;DHT22;5106;50.926;7.080;2023-11-19T07:22:52;11.90;96.50
10133;DHT22;5106;50.926;7.080;2023-11-19T07:25:18;11.80;96.50
10133;DHT22;5106;50.926;7.080;2023-11-19T07:27:43;11.80;96.50
10133;DHT22;5106;50.926;7.080;2023-11-19T07:30:09;11.70;96.50
10133;DHT22;5106;50.926;7.080;2023-11-19T07:32:35;11.70;96.50
10133;DHT22;5106;50.926;7.080;2023-11-19T07:35:00;11.60;96.50
10133;DHT22;5106;50.926;7.080;2023-11-19T07:37:26;11.50;96.50
10133;DHT22;5106;50.926;7.080;2023-11-19T07:39:52;11.50;96.50
10133;DHT22;5106;50.926;7.080;2023-11-19T07:42:17;11.40;96.50
10133;DHT22;5106;50.926;7.080;2023-11-19T07:44:44;11.40;96.50
10133;DHT22;5106;50.926;7.080;2023-11-19T07:47:09;11.40;96.50
10133;DHT22;5106;50.926;7.080;2023-11-19T07:49:35;11.30;96.50
10133;DHT22;5106;50.926;7.080;2023-11-19T07:52:01;11.30;96.50
10133;DHT22;5106;50.926;7.080;2023-11-19T07:54:28;11.30;96.50
10133;DHT22;5106;50.926;7.080;2023-11-19T07:56:54;11.40;96.50
10133;DHT22;5106;50.926;7.080;2023-11-19T07:59:19;11.40;96.50
10133;DHT22;5106;50.926;7.080;2023-11-19T08:01:45;11.50;96.50
10133;DHT22;5106;50.926;7.080;2023-11-19T08:04:10;11.50;96.50
10133;DHT22;5106;50.926;7.080;2023-11-19T08:06:36;11.60;96.50
10133;DHT22;5106;50.926;7.080;2023-11-19T08:09:02;11.70;96.50
10133;DHT22;5106;50.926;7.080;2023-11-19T08:11:27;11.70;96.50
10133;DHT22;5106;50.926;7.080;2023-11-19T08:13:53;11.70;96.50
10133;DHT22;5106;50.926;7.080;2023-11-19T08:16:19;11.70;96.50
10133;DHT22;5106;50.926;7.080;2023-11-19T08:18:44;11.70;96.50
10133;DHT22;5106;50.926;7.080;2023-11-19T08:21:10;11.70;96.50
10133;DHT22;5106;50.926;7.080;2023-11-19T08:23:36;11.70;96.50
10133;DHT22;5106;50.926;7.080;2023-11-19T08:26:02;11.70;96.50
10133;DHT22;5106;50.926;7.080;2023-11-19T08:28:28;11.70;96.50
10133;DHT22;5106;50.926;7.080;2023-11-19T08:30:53;11.80;96.50
10133;DHT22;5106;50.926;7.080;2023-11-19T08:33:19;11.80;96.50
10133;DHT22;5106;50.926;7.080;2023-11-19T08:35:48;11.90;96.50
10133;DHT22;5106;50.926;7.080;2023-11-19T08:38:13;12.00;96.50
10133;DHT22;5106;50.926;7.080;2023-11-19T08:40:39;12.10;96.50
10133;DHT22;5106;50.926;7.080;2023-11-19T08:43:05;12.20;96.50
10133;DHT22;5106;50.926;7.080;2023-11-19T08:45:31;12.20;96.50
10133;DHT22;5106;50.926;7.080;2023-11-19T08:47:57;12.30;96.50
10133;DHT22;5106;50.926;7.080;2023-11-19T08:50:23;12.30;96.50
10133;DHT22;5106;50.926;7.080;2023-11-19T08:52:49;12.40;96.50
10133;DHT22;5106;50.926;7.080;2023-11-19T08:55:14;12.40;96.50
10133;DHT22;5106;50.926;7.080;2023-11-19T08:57:40;12.50;96.50
10133;DHT22;5106;50.926;7.080;2023-11-19T09:00:06;12.50;96.50
10133;DHT22;5106;50.926;7.080;2023-11-19T09:02:38;12.50;96.50
10133;DHT22;5106;50.926;7.080;2023-11-19T09:05:04;12.50;96.50
10133;DHT22;5106;50.926;7.080;2023-11-19T09:07:31;12.50;96.50
10133;DHT22;5106;50.926;7.080;2023-11-19T09:09:56;12.60;96.50
10133;DHT22;5106;50.926;7.080;2023-11-19T09:12:22;12.60;96.50
10133;DHT22;5106;50.926;7.080;2023-11-19T09:14:47;12.60;96.50
10133;DHT22;5106;50.926;7.080;2023-11-19T09:17:15;12.70;96.50
10133;DHT22;5106;50.926;7.080;2023-11-19T09:19:41;12.70;96.50
10133;DHT22;5106;50.926;7.080;2023-11-19T09:22:07;12.80;96.50
10133;DHT22;5106;50.926;7.080;2023-11-19T09:24:32;12.80;96.50
10133;DHT22;5106;50.926;7.080;2023-11-19T09:26:58;12.80;96.50
10133;DHT22;5106;50.926;7.080;2023-11-19T09:29:23;12.80;96.50
10133;DHT22;5106;50.926;7.080;2023-11-19T09:31:49;12.90;96.50
10133;DHT22;5106;50.926;7.080;2023-11-19T09:34:15;12.90;96.50
10133;DHT22;5106;50.926;7.080;2023-11-19T09:36:40;12.90;96.50
10133;DHT22;5106;50.926;7.080;2023-11-19T09:39:10;13.00;96.50
10133;DHT22;5106;50.926;7.080;2023-11-19T09:41:36;13.00;96.50
10133;DHT22;5106;50.926;7.080;2023-11-19T09:44:01;13.00;96.50
10133;DHT22;5106;50.926;7.080;2023-11-19T09:46:28;13.00;96.50
10133;DHT22;5106;50.926;7.080;2023-11-19T09:48:56;13.00;96.50
10133;DHT22;5106;50.926;7.080;2023-11-19T09:51:23;13.00;96.50
10133;DHT22;5106;50.926;7.080;2023-11-19T09:53:48;13.10;96.50
10133;DHT22;5106;50.926;7.080;2023-11-19T09:56:15;13.20;96.50
10133;DHT22;5106;50.926;7.080;2023-11-19T09:58:42;13.30;96.50
10133;DHT22;5106;50.926;7.080;2023-11-19T10:01:08;13.50;96.50
10133;DHT22;5106;50.926;7.080;2023-11-19T10:03:38;13.50;96.50
10133;DHT22;5106;50.926;7.080;2023-11-19T10:06:08;13.50;96.50
10133;DHT22;5106;50.926;7.080;2023-11-19T10:08:37;13.60;96.50
10133;DHT22;5106;50.926;7.080;2023-11-19T10:11:03;13.70;96.50
10133;DHT22;5106;50.926;7.080;2023-11-19T10:13:29;13.80;96.50
10133;DHT22;5106;50.926;7.080;2023-11-19T10:15:58;13.80;96.50
10133;DHT22;5106;50.926;7.080;2023-11-19T10:18:25;13.80;96.50
10133;DHT22;5106;50.926;7.080;2023-11-19T10:20:51;13.80;96.50
10133;DHT22;5106;50.926;7.080;2023-11-19T10:23:16;13.80;96.50
10133;DHT22;5106;50.926;7.080;2023-11-19T10:25:42;13.80;96.50
10133;DHT22;5106;50.926;7.080;2023-11-19T10:28:07;13.80;96.50
10133;DHT22;5106;50.926;7.080;2023-11-19T10:30:33;13.80;96.50
10133;DHT22;5106;50.926;7.080;2023-11-19T10:33:07;13.80;96.50
10133;DHT22;5106;50.926;7.080;2023-11-19T10:35:37;13.80;96.50
10133;DHT22;5106;50.926;7.080;2023-11-19T10:38:16;13.80;96.50
10133;DHT22;5106;50.926;7.080;2023-11-19T10:40:41;13.80;96.50
10133;DHT22;5106;50.926;7.080;2023-11-19T10:43:08;13.80;96.50
10133;DHT22;5106;50.926;7.080;2023-11-19T10:45:37;13.90;96.50
10133;DHT22;5106;50.926;7.080;2023-11-19T10:48:04;13.90;96.50
10133;DHT22;5106;50.926;7.080;2023-11-19T10:50:36;13.90;96.50
10133;DHT22;5106;50.926;7.080;2023-11-19T10:53:03;14.00;96.50
10133;DHT22;5106;50.926;7.080;2023-11-19T10:55:30;14.00;96.50
10133;DHT22;5106;50.926;7.080;2023-11-19T10:58:03;14.00;96.50
10133;DHT22;5106;50.926;7.080;2023-11-19T11:05:40;14.00;96.50
10133;DHT22;5106;50.926;7.080;2023-11-19T11:08:07;14.10;96.50
10133;DHT22;5106;50.926;7.080;2023-11-19T11:10:37;14.00;96.50
10133;DHT22;5106;50.926;7.080;2023-11-19T11:13:05;14.00;96.20
10133;DHT22;5106;50.926;7.080;2023-11-19T11:15:31;13.90;96.50
10133;DHT22;5106;50.926;7.080;2023-11-19T11:18:00;13.90;96.50
10133;DHT22;5106;50.926;7.080;2023-11-19T11:20:33;13.80;96.50
10133;DHT22;5106;50.926;7.080;2023-11-19T11:39:34;12.70;96.50
10133;DHT22;5106;50.926;7.080;2023-11-19T11:42:30;12.70;96.50
10133;DHT22;5106;50.926;7.080;2023-11-19T11:50:34;12.80;96.50
10133;DHT22;5106;50.926;7.080;2023-11-19T11:55:36;13.00;96.50
10133;DHT22;5106;50.926;7.080;2023-11-19T11:58:05;13.10;96.50
10133;DHT22;5106;50.926;7.080;2023-11-19T12:02:59;13.10;96.50
10133;DHT22;5106;50.926;7.080;2023-11-19T12:05:24;13.10;96.50
10133;DHT22;5106;50.926;7.080;2023-11-19T12:08:01;13.10;96.50
10133;DHT22;5106;50.926;7.080;2023-11-19T12:10:31;13.20;96.50
10133;DHT22;5106;50.926;7.080;2023-11-19T12:13:00;13.30;96.50
10133;DHT22;5106;50.926;7.080;2023-11-19T12:15:26;13.50;96.50
10133;DHT22;5106;50.926;7.080;2023-11-19T12:17:53;13.60;96.50
10133;DHT22;5106;50.926;7.080;2023-11-19T12:20:24;13.70;96.50
10133;DHT22;5106;50.926;7.080;2023-11-19T12:23:05;13.80;96.50
10133;DHT22;5106;50.926;7.080;2023-11-19T12:25:42;13.80;96.50
10133;DHT22;5106;50.926;7.080;2023-11-19T12:28:12;13.80;96.50
10133;DHT22;5106;50.926;7.080;2023-11-19T12:30:39;13.80;96.50
10133;DHT22;5106;50.926;7.080;2023-11-19T12:33:12;13.80;96.50
10133;DHT22;5106;50.926;7.080;2023-11-19T12:35:41;13.80;96.50
10133;DHT22;5106;50.926;7.080;2023-11-19T12:38:08;13.80;96.50
10133;DHT22;5106;50.926;7.080;2023-11-19T12:40:34;13.80;96.50
10133;DHT22;5106;50.926;7.080;2023-11-19T12:42:59;13.80;96.50
10133;DHT22;5106;50.926;7.080;2023-11-19T12:45:35;13.80;96.50
10133;DHT22;5106;50.926;7.080;2023-11-19T12:48:05;13.80;96.50
10133;DHT22;5106;50.926;7.080;2023-11-19T12:50:50;13.80;96.50
10133;DHT22;5106;50.926;7.080;2023-11-19T12:53:17;13.80;96.50
10133;DHT22;5106;50.926;7.080;2023-11-19T12:55:43;13.80;96.50
10133;DHT22;5106;50.926;7.080;2023-11-19T12:58:09;13.80;96.50
10133;DHT22;5106;50.926;7.080;2023-11-19T13:00:34;13.80;96.50
10133;DHT22;5106;50.926;7.080;2023-11-19T13:03:00;13.80;96.50
10133;DHT22;5106;50.926;7.080;2023-11-19T13:08:02;13.70;96.50
10133;DHT22;5106;50.926;7.080;2023-11-19T13:10:29;13.70;96.50
10133;DHT22;5106;50.926;7.080;2023-11-19T13:13:05;13.70;96.50
10133;DHT22;5106;50.926;7.080;2023-11-19T13:15:31;13.70;96.50
10133;DHT22;5106;50.926;7.080;2023-11-19T13:17:57;13.70;96.50
10133;DHT22;5106;50.926;7.080;2023-11-19T13:20:23;13.70;96.50
10133;DHT22;5106;50.926;7.080;2023-11-19T13:23:26;13.80;96.50
10133;DHT22;5106;50.926;7.080;2023-11-19T13:26:25;13.80;96.50
10133;DHT22;5106;50.926;7.080;2023-11-19T13:28:51;13.80;96.50
10133;DHT22;5106;50.926;7.080;2023-11-19T13:31:17;13.80;96.50
10133;DHT22;5106;50.926;7.080;2023-11-19T13:33:42;13.80;96.50
10133;DHT22;5106;50.926;7.080;2023-11-19T13:36:08;13.90;96.50
10133;DHT22;5106;50.926;7.080;2023-11-19T13:38:35;13.90;96.50
10133;DHT22;5106;50.926;7.080;2023-11-19T13:41:05;13.90;96.50
10133;DHT22;5106;50.926;7.080;2023-11-19T13:43:31;13.90;96.50
10133;DHT22;5106;50.926;7.080;2023-11-19T13:45:57;13.90;96.50
10133;DHT22;5106;50.926;7.080;2023-11-19T13:48:24;13.90;96.50
10133;DHT22;5106;50.926;7.080;2023-11-19T13:50:50;13.90;96.50
10133;DHT22;5106;50.926;7.080;2023-11-19T13:53:16;14.00;96.50
10133;DHT22;5106;50.926;7.080;2023-11-19T13:55:42;13.90;96.50
10133;DHT22;5106;50.926;7.080;2023-11-19T13:58:09;14.00;96.50
10133;DHT22;5106;50.926;7.080;2023-11-19T14:00:35;14.00;96.50
10133;DHT22;5106;50.926;7.080;2023-11-19T14:03:00;14.00;96.50
10133;DHT22;5106;50.926;7.080;2023-11-19T14:05:26;14.00;96.50
10133;DHT22;5106;50.926;7.080;2023-11-19T14:07:52;14.00;96.50
10133;DHT22;5106;50.926;7.080;2023-11-19T14:10:19;14.00;96.30
10133;DHT22;5106;50.926;7.080;2023-11-19T14:12:44;14.00;96.10
10133;DHT22;5106;50.926;7.080;2023-11-19T14:15:10;14.00;95.90
10133;DHT22;5106;50.926;7.080;2023-11-19T14:17:38;14.00;96.20
10133;DHT22;5106;50.926;7.080;2023-11-19T14:20:05;14.00;96.20
10133;DHT22;5106;50.926;7.080;2023-11-19T14:22:41;14.00;96.50
10133;DHT22;5106;50.926;7.080;2023-11-19T14:25:08;14.00;96.30
10133;DHT22;5106;50.926;7.080;2023-11-19T14:27:36;13.90;95.90
10133;DHT22;5106;50.926;7.080;2023-11-19T14:30:03;13.90;96.30
10133;DHT22;5106;50.926;7.080;2023-11-19T14:32:29;13.90;96.20
10133;DHT22;5106;50.926;7.080;2023-11-19T14:34:54;13.90;96.50
10133;DHT22;5106;50.926;7.080;2023-11-19T14:37:20;13.80;96.30
10133;DHT22;5106;50.926;7.080;2023-11-19T14:39:46;13.80;96.50
10133;DHT22;5106;50.926;7.080;2023-11-19T14:42:11;13.80;96.50
10133;DHT22;5106;50.926;7.080;2023-11-19T14:44:37;13.80;96.40
10133;DHT22;5106;50.926;7.080;2023-11-19T14:47:02;13.70;96.50
10133;DHT22;5106;50.926;7.080;2023-11-19T14:49:28;13.70;96.50
10133;DHT22;5106;50.926;7.080;2023-11-19T14:51:54;13.70;96.50
10133;DHT22;5106;50.926;7.080;2023-11-19T14:54:19;13.70;96.50
10133;DHT22;5106;50.926;7.080;2023-11-19T14:56:45;13.70;96.10
10133;DHT22;5106;50.926;7.080;2023-11-19T14:59:10;13.70;96.30
10133;DHT22;5106;50.926;7.080;2023-11-19T15:01:36;13.80;96.40
10133;DHT22;5106;50.926;7.080;2023-11-19T15:04:01;13.80;96.50
10133;DHT22;5106;50.926;7.080;2023-11-19T15:06:27;13.70;96.50
10133;DHT22;5106;50.926;7.080;2023-11-19T15:08:53;13.70;96.40
10133;DHT22;5106;50.926;7.080;2023-11-19T15:11:20;13.60;96.20
10133;DHT22;5106;50.926;7.080;2023-11-19T15:13:46;13.60;96.30
10133;DHT22;5106;50.926;7.080;2023-11-19T15:16:12;13.50;96.20
10133;DHT22;5106;50.926;7.080;2023-11-19T15:18:39;13.50;96.30
10133;DHT22;5106;50.926;7.080;2023-11-19T15:21:05;13.50;96.40
10133;DHT22;5106;50.926;7.080;2023-11-19T15:23:31;13.50;96.50
10133;DHT22;5106;50.926;7.080;2023-11-19T15:25:56;13.40;96.50
10133;DHT22;5106;50.926;7.080;2023-11-19T15:28:22;13.30;96.50
10133;DHT22;5106;50.926;7.080;2023-11-19T15:30:47;13.30;96.50
10133;DHT22;5106;50.926;7.080;2023-11-19T15:33:13;13.30;96.50
10133;DHT22;5106;50.926;7.080;2023-11-19T15:35:39;13.20;96.50
10133;DHT22;5106;50.926;7.080;2023-11-19T15:38:07;13.20;96.50
10133;DHT22;5106;50.926;7.080;2023-11-19T15:40:35;13.20;96.50
10133;DHT22;5106;50.926;7.080;2023-11-19T15:43:01;13.20;96.50
10133;DHT22;5106;50.926;7.080;2023-11-19T15:45:27;13.10;96.50
10133;DHT22;5106;50.926;7.080;2023-11-19T15:47:52;13.10;96.50
10133;DHT22;5106;50.926;7.080;2023-11-19T15:50:18;13.00;96.50
10133;DHT22;5106;50.926;7.080;2023-11-19T15:52:44;12.80;96.50
10133;DHT22;5106;50.926;7.080;2023-11-19T15:55:10;12.60;96.50
10133;DHT22;5106;50.926;7.080;2023-11-19T15:57:38;12.50;96.50
10133;DHT22;5106;50.926;7.080;2023-11-19T16:00:03;12.40;96.50
10133;DHT22;5106;50.926;7.080;2023-11-19T16:02:30;12.30;96.50
10133;DHT22;5106;50.926;7.080;2023-11-19T16:04:55;12.30;96.50
10133;DHT22;5106;50.926;7.080;2023-11-19T16:07:21;12.30;96.50
10133;DHT22;5106;50.926;7.080;2023-11-19T16:09:46;12.40;96.50
10133;DHT22;5106;50.926;7.080;2023-11-19T16:12:13;12.40;96.50
10133;DHT22;5106;50.926;7.080;2023-11-19T16:14:39;12.40;96.50
10133;DHT22;5106;50.926;7.080;2023-11-19T16:17:04;12.40;96.50
10133;DHT22;5106;50.926;7.080;2023-11-19T16:19:31;12.40;96.50